Salt Lake City, Utah
Traffic Map
Current Weather Conditions
Salt Lake City, Utah
Overcast
Overcast

Feels Like: -2°
Wind Chill: -2° Ceiling: 3700
Heat Index: Visibility: 10mi
Dew Point: -3° Wind: 15mph
Humidity: 65% Direction: 180° (S)
Pressure: 29.82in Gusts: 26mph
Raw Report DataKSLC 222154Z 18013G23KT 10SM BKN037 OVC045 03/M03 A2982 RMK AO2 PK WND 19027/2056 SLP104 VIRGA ALQDS T00281033
Traffic Incident Summary
Active as of:
Severity:
Category:
InformationThere was an issue retrieving the traffic information for this location. Please try a different location or try again shortly.
Advertisements
Track Severe Weather on mobile